createdAt,value
2023-03-21T00:00:43.584Z,101386.44
2023-03-21T00:03:10.396Z,101377.34
2023-03-21T00:05:40.915Z,101376.34
2023-03-21T00:08:08.150Z,101377.34
2023-03-21T00:10:43.113Z,101379.19
2023-03-21T00:13:11.119Z,101381.03
2023-03-21T00:15:44.256Z,101376.47
2023-03-21T00:18:25.734Z,101364.81
2023-03-21T00:21:29.406Z,101362.09
2023-03-21T00:23:46.642Z,101361.28
2023-03-21T00:26:14.735Z,101364.97
2023-03-21T00:28:42.541Z,101363.13
2023-03-21T00:31:09.884Z,101367.78
2023-03-21T00:33:37.885Z,101359.97
2023-03-21T00:36:06.015Z,101365.50
2023-03-21T00:38:33.473Z,101361.22
2023-03-21T00:41:04.697Z,101357.78
2023-03-21T00:43:34.306Z,101358.75
2023-03-21T00:46:00.948Z,101361.47
2023-03-21T00:48:28.013Z,101357.06
2023-03-21T00:50:57.322Z,101357.06
2023-03-21T00:53:24.207Z,101351.69
2023-03-21T00:55:51.901Z,101354.22
2023-03-21T00:58:18.848Z,101345.25
2023-03-21T01:00:46.157Z,101349.84
2023-03-21T01:03:24.315Z,101349.94
2023-03-21T01:05:52.286Z,101355.34
2023-03-21T01:08:26.814Z,101351.78
2023-03-21T01:11:02.384Z,101354.50
2023-03-21T01:13:28.982Z,101349.22
2023-03-21T01:15:58.440Z,101350.06
2023-03-21T01:18:27.688Z,101345.53
2023-03-21T01:20:55.795Z,101343.69
2023-03-21T01:23:24.676Z,101348.22
2023-03-21T01:25:53.064Z,101342.13
2023-03-21T01:28:19.987Z,101346.78
2023-03-21T01:30:47.002Z,101343.22
2023-03-21T01:33:14.221Z,101345.94
2023-03-21T01:35:49.120Z,101346.09
2023-03-21T01:38:18.330Z,101345.22
2023-03-21T01:40:47.947Z,101341.66
2023-03-21T01:43:24.295Z,101354.44
2023-03-21T01:46:21.645Z,101345.47
2023-03-21T01:48:51.829Z,101342.91
2023-03-21T01:51:19.659Z,101343.91
2023-03-21T01:53:47.680Z,101347.59
2023-03-21T01:56:22.725Z,101346.88
2023-03-21T01:58:50.673Z,101346.16
2023-03-21T02:01:17.566Z,101348.97
2023-03-21T02:03:47.216Z,101344.56
2023-03-21T02:06:16.330Z,101345.56
2023-03-21T02:08:43.009Z,101345.69
2023-03-21T02:11:09.839Z,101333.91
2023-03-21T02:13:38.228Z,101343.97
2023-03-21T02:16:12.605Z,101345.69
2023-03-21T02:18:49.132Z,101330.34
2023-03-21T02:21:42.300Z,101343.72
2023-03-21T02:25:01.324Z,101336.59
2023-03-21T02:27:34.660Z,101336.88
2023-03-21T02:30:49.269Z,101328.03
2023-03-21T02:33:38.007Z,101330.03
2023-03-21T02:36:22.141Z,101329.00
2023-03-21T02:38:56.004Z,101328.31
2023-03-21T02:41:40.093Z,101324.63
2023-03-21T02:44:12.729Z,101334.56
2023-03-21T02:46:53.736Z,101336.28
2023-03-21T02:49:24.594Z,101334.56
2023-03-21T02:51:51.516Z,101340.09
2023-03-21T02:54:35.387Z,101334.81
2023-03-21T02:57:11.574Z,101333.38
2023-03-21T02:59:51.570Z,101333.50
2023-03-21T03:02:24.580Z,101337.19
2023-03-21T03:04:51.146Z,101329.97
2023-03-21T03:07:33.293Z,101333.50
2023-03-21T03:10:22.888Z,101343.31
2023-03-21T03:12:59.355Z,101343.31
2023-03-21T03:15:35.612Z,101333.50
2023-03-21T03:18:10.366Z,101329.09
2023-03-21T03:20:48.016Z,101335.47
2023-03-21T03:23:24.985Z,101333.63
2023-03-21T03:25:58.226Z,101329.09
2023-03-21T03:28:30.100Z,101335.34
2023-03-21T03:31:08.838Z,101334.50
2023-03-21T03:33:40.427Z,101333.63
2023-03-21T03:36:21.519Z,101323.97
2023-03-21T03:38:52.069Z,101335.00
2023-03-21T03:41:25.797Z,101333.31
2023-03-21T03:43:57.752Z,101327.91
2023-03-21T03:46:30.394Z,101331.59
2023-03-21T03:49:01.905Z,101333.31
2023-03-21T03:51:34.289Z,101333.44
2023-03-21T03:54:04.446Z,101335.28
2023-03-21T03:56:33.209Z,101333.56
2023-03-21T03:59:03.481Z,101330.16
2023-03-21T04:01:30.295Z,101334.69
2023-03-21T04:04:11.927Z,101334.69
2023-03-21T04:06:38.831Z,101340.09
2023-03-21T04:09:13.616Z,101332.13
2023-03-21T04:11:46.942Z,101335.78
2023-03-21T04:14:13.633Z,101326.97
2023-03-21T04:16:40.255Z,101329.81
2023-03-21T04:19:06.873Z,101323.53
2023-03-21T04:21:33.560Z,101327.09
2023-03-21T04:24:00.277Z,101328.81
2023-03-21T04:26:27.001Z,101331.53
2023-03-21T04:28:54.999Z,101334.34
2023-03-21T04:31:25.971Z,101327.25
2023-03-21T04:33:52.921Z,101329.97
2023-03-21T04:36:19.606Z,101328.09
2023-03-21T04:38:46.424Z,101325.38
2023-03-21T04:41:12.983Z,101324.56
2023-03-21T04:43:39.578Z,101328.22
2023-03-21T04:46:07.720Z,101332.66
2023-03-21T04:48:34.429Z,101331.06
2023-03-21T04:51:01.190Z,101326.63
2023-03-21T04:53:27.761Z,101333.75
2023-03-21T04:55:55.615Z,101325.81
2023-03-21T04:58:22.305Z,101327.66
2023-03-21T05:00:48.931Z,101327.66
2023-03-21T05:03:16.888Z,101328.50
2023-03-21T05:05:43.528Z,101325.81
2023-03-21T05:08:10.172Z,101326.78
2023-03-21T05:10:36.830Z,101320.41
2023-03-21T05:13:03.579Z,101321.25
2023-03-21T05:15:30.252Z,101321.38
2023-03-21T05:17:57.053Z,101324.31
2023-03-21T05:20:25.015Z,101323.50
2023-03-21T05:22:51.771Z,101313.53
2023-03-21T05:25:19.152Z,101321.63
2023-03-21T05:27:45.723Z,101320.66
2023-03-21T05:30:15.092Z,101315.13
2023-03-21T05:32:42.040Z,101317.84
2023-03-21T05:35:09.377Z,101317.84
2023-03-21T05:37:37.678Z,101318.69
2023-03-21T05:40:05.553Z,101320.41
2023-03-21T05:42:32.680Z,101313.13
2023-03-21T05:44:59.279Z,101319.28
2023-03-21T05:47:25.981Z,101316.47
2023-03-21T05:49:52.675Z,101320.72
2023-03-21T05:52:19.374Z,101321.47
2023-03-21T05:54:47.829Z,101316.78
2023-03-21T05:57:14.578Z,101323.91
2023-03-21T05:59:41.371Z,101324.59
2023-03-21T06:02:08.001Z,101329.88
2023-03-21T06:04:34.618Z,101329.59
2023-03-21T06:07:01.358Z,101327.66
2023-03-21T06:09:27.990Z,101334.78
2023-03-21T06:11:57.159Z,101331.91
2023-03-21T06:14:24.777Z,101339.91
2023-03-21T06:16:51.553Z,101337.91
2023-03-21T06:19:18.242Z,101336.06
2023-03-21T06:21:44.931Z,101337.66
2023-03-21T06:24:11.653Z,101342.09
2023-03-21T06:26:38.318Z,101339.38
2023-03-21T06:29:06.298Z,101339.38
2023-03-21T06:31:32.897Z,101343.91
2023-03-21T06:33:59.546Z,101343.78
2023-03-21T06:36:26.138Z,101342.78
2023-03-21T06:38:52.912Z,101337.38
2023-03-21T06:41:19.591Z,101330.88
2023-03-21T06:43:46.374Z,101337.84
2023-03-21T06:46:14.393Z,101340.16
2023-03-21T06:48:41.144Z,101340.03
2023-03-21T06:51:07.816Z,101337.19
2023-03-21T06:53:36.080Z,101330.69
2023-03-21T06:56:02.826Z,101335.94
2023-03-21T06:58:29.637Z,101339.47
2023-03-21T07:00:58.652Z,101336.66
2023-03-21T07:03:26.799Z,101335.28
2023-03-21T07:05:53.565Z,101337.56
2023-03-21T07:08:20.555Z,101337.16
2023-03-21T07:10:47.366Z,101338.88
2023-03-21T07:13:14.672Z,101337.88
2023-03-21T07:15:41.278Z,101337.59
2023-03-21T07:18:09.331Z,101337.94
2023-03-21T07:20:37.357Z,101338.41
2023-03-21T07:23:04.600Z,101339.69
2023-03-21T07:25:31.283Z,101339.44
2023-03-21T07:27:57.970Z,101343.56
2023-03-21T07:30:24.628Z,101346.84
2023-03-21T07:32:51.278Z,101340.31
2023-03-21T07:35:18.411Z,101347.44
2023-03-21T07:37:46.405Z,101340.06
2023-03-21T07:40:13.330Z,101340.63
2023-03-21T07:42:41.375Z,101341.22
2023-03-21T07:45:09.836Z,101340.69
2023-03-21T07:47:36.671Z,101342.13
2023-03-21T07:50:03.833Z,101351.69
2023-03-21T07:52:30.674Z,101348.41
2023-03-21T07:54:58.886Z,101341.72
2023-03-21T07:57:25.555Z,101332.50
2023-03-21T07:59:52.176Z,101340.44
2023-03-21T08:02:18.877Z,101333.06
2023-03-21T08:04:45.918Z,101335.47
2023-03-21T08:07:13.135Z,101340.63
2023-03-21T08:09:40.109Z,101336.50
2023-03-21T08:12:08.179Z,101337.91
2023-03-21T08:14:34.815Z,101335.53
2023-03-21T08:17:01.470Z,101332.53
2023-03-21T08:19:28.055Z,101338.25
2023-03-21T08:21:54.796Z,101340.53
2023-03-21T08:24:21.424Z,101337.41
2023-03-21T08:26:48.034Z,101342.41
2023-03-21T08:29:16.219Z,101339.22
2023-03-21T08:31:42.825Z,101337.13
2023-03-21T08:34:09.494Z,101332.13
2023-03-21T08:36:36.903Z,101330.84
2023-03-21T08:39:04.030Z,101333.97
2023-03-21T08:41:30.877Z,101329.81
2023-03-21T08:43:57.485Z,101334.81
2023-03-21T08:46:25.714Z,101337.94
2023-03-21T08:48:52.408Z,101333.53
2023-03-21T08:51:19.140Z,101342.50
2023-03-21T08:53:45.907Z,101337.94
2023-03-21T08:56:12.876Z,101334.25
2023-03-21T08:58:39.481Z,101333.38
2023-03-21T09:01:06.543Z,101331.38
2023-03-21T09:03:34.552Z,101331.97
2023-03-21T09:06:01.127Z,101336.38
2023-03-21T09:08:27.937Z,101341.50
2023-03-21T09:10:55.043Z,101333.38
2023-03-21T09:13:22.090Z,101335.94
2023-03-21T09:15:49.197Z,101334.06
2023-03-21T09:18:16.258Z,101338.50
2023-03-21T09:20:45.697Z,101333.09
2023-03-21T09:23:13.742Z,101337.66
2023-03-21T09:25:40.927Z,101328.34
2023-03-21T09:28:07.974Z,101336.34
2023-03-21T09:30:36.156Z,101330.50
2023-03-21T09:33:04.738Z,101330.91
2023-03-21T09:35:31.608Z,101338.63
2023-03-21T09:37:59.687Z,101334.47
2023-03-21T09:40:43.857Z,101339.28
2023-03-21T09:43:22.488Z,101330.75
2023-03-21T09:45:57.462Z,101333.00
2023-03-21T09:48:56.696Z,101324.44
2023-03-21T09:51:27.609Z,101332.84
2023-03-21T09:53:57.349Z,101324.94
2023-03-21T09:56:25.074Z,101324.50
2023-03-21T09:58:54.851Z,101327.47
2023-03-21T10:01:26.010Z,101326.00
2023-03-21T10:03:53.684Z,101316.28
2023-03-21T10:06:22.141Z,101322.50
2023-03-21T10:08:49.291Z,101310.41
2023-03-21T10:11:19.723Z,101303.22
2023-03-21T10:13:51.188Z,101303.88
2023-03-21T10:16:23.215Z,101292.78
2023-03-21T10:18:50.587Z,101298.66
2023-03-21T10:21:43.399Z,101294.69
2023-03-21T10:24:12.326Z,101300.91
2023-03-21T10:26:40.700Z,101295.16
2023-03-21T10:29:09.629Z,101294.88
2023-03-21T10:31:36.560Z,101294.72
2023-03-21T10:34:09.695Z,101287.59
2023-03-21T10:36:36.392Z,101292.84
2023-03-21T10:39:05.892Z,101290.13
2023-03-21T10:41:33.293Z,101283.69
2023-03-21T10:44:11.295Z,101286.09
2023-03-21T10:46:38.472Z,101287.81
2023-03-21T10:49:07.769Z,101285.78
2023-03-21T10:51:37.667Z,101284.06
2023-03-21T10:54:08.037Z,101287.47
2023-03-21T10:56:38.319Z,101282.03
2023-03-21T10:59:08.693Z,101280.19
2023-03-21T11:01:39.064Z,101282.38
2023-03-21T11:04:14.366Z,101272.22
2023-03-21T11:06:42.934Z,101273.75
2023-03-21T11:09:15.120Z,101275.59
2023-03-21T11:11:50.850Z,101275.59
2023-03-21T11:14:36.616Z,101272.72
2023-03-21T11:17:18.679Z,101269.84
2023-03-21T11:19:48.425Z,101265.09
2023-03-21T11:22:15.744Z,101255.94
2023-03-21T11:24:47.660Z,101257.47
2023-03-21T11:27:14.335Z,101249.84
2023-03-21T11:29:47.454Z,101249.38
2023-03-21T11:32:21.108Z,101243.47
2023-03-21T11:34:50.015Z,101243.84
2023-03-21T11:37:24.906Z,101243.34
2023-03-21T11:39:56.402Z,101237.44
2023-03-21T11:42:30.815Z,101237.81
2023-03-21T11:45:10.558Z,101231.69
2023-03-21T11:47:37.335Z,101237.34
2023-03-21T11:50:16.259Z,101227.72
2023-03-21T11:52:52.219Z,101225.41
2023-03-21T11:55:41.495Z,101215.91
2023-03-21T11:58:32.023Z,101215.66
2023-03-21T12:01:07.715Z,101213.63
2023-03-21T12:04:07.559Z,101212.91
2023-03-21T12:06:38.143Z,101204.75
2023-03-21T12:09:27.912Z,101205.94
2023-03-21T12:12:11.674Z,101203.38
2023-03-21T12:14:44.046Z,101204.94
2023-03-21T12:17:25.443Z,101203.38
2023-03-21T12:20:14.384Z,101195.91
2023-03-21T12:22:51.085Z,101192.16
2023-03-21T12:25:22.944Z,101179.22
2023-03-21T12:28:02.926Z,101178.03
2023-03-21T12:30:38.497Z,101181.41
2023-03-21T12:33:21.055Z,101174.44
2023-03-21T12:35:59.440Z,101172.06
2023-03-21T12:38:36.350Z,101163.69
2023-03-21T12:41:18.549Z,101174.06
2023-03-21T12:43:48.115Z,101159.09
2023-03-21T12:46:22.545Z,101164.38
2023-03-21T12:48:56.155Z,101166.25
2023-03-21T12:51:29.056Z,101164.56
2023-03-21T12:54:02.229Z,101160.97
2023-03-21T12:56:32.780Z,101167.13
2023-03-21T12:59:06.310Z,101157.94
2023-03-21T13:01:36.768Z,101154.66
2023-03-21T13:04:29.794Z,101142.59
2023-03-21T13:07:00.536Z,101143.97
2023-03-21T13:09:37.602Z,101143.44
2023-03-21T13:12:21.956Z,101149.41
2023-03-21T13:15:02.663Z,101139.03
2023-03-21T13:17:35.733Z,101138.53
2023-03-21T13:20:12.918Z,101134.28
2023-03-21T13:22:39.582Z,101124.56
2023-03-21T13:25:16.591Z,101133.94
2023-03-21T13:27:43.500Z,101126.13
2023-03-21T13:30:20.548Z,101126.97
2023-03-21T13:32:49.585Z,101117.97
2023-03-21T13:35:20.974Z,101107.22
2023-03-21T13:37:52.257Z,101119.13
2023-03-21T13:40:24.232Z,101111.81
2023-03-21T13:42:53.325Z,101110.81
2023-03-21T13:45:27.557Z,101112.84
2023-03-21T13:47:56.447Z,101108.94
2023-03-21T13:51:00.748Z,101105.19
2023-03-21T13:53:32.481Z,101109.44
2023-03-21T13:56:06.871Z,101102.47
2023-03-21T13:58:37.062Z,101105.19
2023-03-21T14:01:13.535Z,101094.94
2023-03-21T14:03:41.797Z,101095.81
2023-03-21T14:06:10.986Z,101105.84
2023-03-21T14:08:40.700Z,101095.97
2023-03-21T14:11:11.995Z,101101.59
2023-03-21T14:13:50.386Z,101097.16
2023-03-21T14:16:19.349Z,101089.69
2023-03-21T14:18:55.274Z,101089.16
2023-03-21T14:21:26.380Z,101091.88
2023-03-21T14:24:00.661Z,101090.88
2023-03-21T14:26:30.558Z,101082.19
2023-03-21T14:28:57.942Z,101082.56
2023-03-21T14:31:26.112Z,101081.00
2023-03-21T14:33:56.509Z,101079.50
2023-03-21T14:36:27.165Z,101080.88
2023-03-21T14:39:03.892Z,101074.72
2023-03-21T14:41:32.703Z,101079.16
2023-03-21T14:44:11.063Z,101066.22
2023-03-21T14:46:37.967Z,101069.78
2023-03-21T14:49:19.263Z,101068.09
2023-03-21T14:51:47.548Z,101057.00
2023-03-21T14:54:16.219Z,101054.13
2023-03-21T14:56:44.816Z,101057.72
2023-03-21T14:59:14.425Z,101056.34
2023-03-21T15:01:41.404Z,101052.41
2023-03-21T15:04:08.333Z,101047.66
2023-03-21T15:06:50.502Z,101045.59
2023-03-21T15:09:22.205Z,101044.78
2023-03-21T15:11:51.396Z,101037.78
2023-03-21T15:14:21.033Z,101036.91
2023-03-21T15:16:48.902Z,101036.91
2023-03-21T15:19:19.380Z,101033.34
2023-03-21T15:21:49.031Z,101033.53
2023-03-21T15:24:22.150Z,101025.03
2023-03-21T15:26:50.344Z,101029.13
2023-03-21T15:29:18.129Z,101026.06
2023-03-21T15:31:49.153Z,101028.44
2023-03-21T15:34:22.877Z,101025.06
2023-03-21T15:36:54.534Z,101019.75
2023-03-21T15:39:22.597Z,101015.31
2023-03-21T15:42:04.422Z,101018.56
2023-03-21T15:44:32.172Z,101015.19
2023-03-21T15:46:59.256Z,101013.81
2023-03-21T15:49:28.574Z,101010.56
2023-03-21T15:52:00.740Z,101010.06
2023-03-21T15:54:31.358Z,101002.59
2023-03-21T15:57:00.140Z,101002.44
2023-03-21T15:59:35.048Z,100996.47
2023-03-21T16:02:03.303Z,100999.56
2023-03-21T16:04:30.047Z,100997.16
2023-03-21T16:06:59.640Z,100989.19
2023-03-21T16:09:26.702Z,100984.91
2023-03-21T16:11:56.549Z,100986.97
2023-03-21T16:14:24.078Z,100987.81
2023-03-21T16:16:51.094Z,100983.25
2023-03-21T16:19:17.909Z,100986.97
2023-03-21T16:21:44.537Z,100985.25
2023-03-21T16:24:11.765Z,100983.75
2023-03-21T16:26:42.086Z,100989.34
2023-03-21T16:29:11.999Z,100979.31
2023-03-21T16:31:38.659Z,100990.34
2023-03-21T16:34:05.287Z,100983.22
2023-03-21T16:36:34.180Z,100981.69
2023-03-21T16:39:00.742Z,100992.06
2023-03-21T16:41:28.002Z,100984.22
2023-03-21T16:43:55.207Z,100989.00
2023-03-21T16:46:24.608Z,100986.44
2023-03-21T16:48:53.819Z,100986.78
2023-03-21T16:53:49.272Z,100988.28
2023-03-21T16:56:19.780Z,100984.91
2023-03-21T16:58:46.487Z,100983.56
2023-03-21T17:01:14.859Z,100988.28
2023-03-21T17:03:43.188Z,100977.75
2023-03-21T17:06:14.456Z,100983.34
2023-03-21T17:08:41.090Z,100979.13
2023-03-21T17:11:09.347Z,100984.88
2023-03-21T17:13:36.002Z,100982.34
2023-03-21T17:16:02.827Z,100978.91
2023-03-21T17:18:29.639Z,100977.22
2023-03-21T17:20:57.645Z,100978.41
2023-03-21T17:23:24.262Z,100976.88
2023-03-21T17:25:50.845Z,100975.34
2023-03-21T17:28:17.482Z,100971.94
2023-03-21T17:30:44.553Z,100974.81
2023-03-21T17:33:11.277Z,100965.16
2023-03-21T17:35:38.066Z,100968.03
2023-03-21T17:38:11.753Z,100968.19
2023-03-21T17:40:38.732Z,100963.94
2023-03-21T17:43:06.026Z,100962.38
2023-03-21T17:45:32.827Z,100964.44
2023-03-21T17:47:59.483Z,100958.47
2023-03-21T17:50:30.819Z,100967.63
2023-03-21T17:52:57.449Z,100958.97
2023-03-21T17:55:25.876Z,100958.97
2023-03-21T17:57:52.496Z,100959.97
2023-03-21T18:00:21.934Z,100962.84
2023-03-21T18:02:48.562Z,100965.75
2023-03-21T18:05:15.662Z,100964.88
2023-03-21T18:08:08.954Z,100966.03
2023-03-21T18:10:31.872Z,100973.38
2023-03-21T18:12:58.721Z,100976.25
2023-03-21T18:15:30.240Z,100976.38
2023-03-21T18:17:57.326Z,100971.81
2023-03-21T18:20:25.216Z,100978.44
2023-03-21T18:22:51.850Z,100974.16
2023-03-21T18:25:18.585Z,100969.78
2023-03-21T18:28:09.544Z,100969.94
2023-03-21T18:30:53.555Z,100968.22
2023-03-21T18:33:20.192Z,100972.78
2023-03-21T18:35:47.145Z,100979.41
2023-03-21T18:38:13.846Z,100973.13
2023-03-21T18:40:40.846Z,100975.16
2023-03-21T18:43:55.798Z,100979.91
2023-03-21T18:45:55.916Z,100977.53
2023-03-21T18:48:22.726Z,100983.09
2023-03-21T18:50:49.522Z,100977.81
2023-03-21T18:53:16.153Z,100976.13
2023-03-21T18:55:46.694Z,100975.31
2023-03-21T18:58:15.620Z,100978.00
2023-03-21T19:00:43.162Z,100978.16
2023-03-21T19:03:21.775Z,100977.31
2023-03-21T19:05:58.628Z,100977.31
2023-03-21T19:08:25.343Z,100983.59
2023-03-21T19:10:51.957Z,100978.16
2023-03-21T19:13:20.122Z,100973.94
2023-03-21T19:15:49.554Z,100980.19
2023-03-21T19:21:03.755Z,100972.38
2023-03-21T19:23:40.793Z,100973.38
2023-03-21T19:26:16.706Z,100978.81
2023-03-21T19:28:44.738Z,100977.94
2023-03-21T19:31:11.401Z,100980.84
2023-03-21T19:33:38.282Z,100981.84
2023-03-21T19:36:17.636Z,100982.00
2023-03-21T19:38:47.668Z,100974.03
2023-03-21T19:41:14.389Z,100983.19
2023-03-21T19:43:52.804Z,100977.75
2023-03-21T19:46:22.056Z,100974.34
2023-03-21T19:48:48.944Z,100974.34
2023-03-21T19:51:31.144Z,100971.81
2023-03-21T19:53:58.315Z,100963.81
2023-03-21T19:56:27.418Z,100970.25
2023-03-21T19:58:54.543Z,100964.16
2023-03-21T20:01:23.575Z,100967.88
2023-03-21T20:03:50.749Z,100967.00
2023-03-21T20:06:17.464Z,100965.50
2023-03-21T20:11:30.746Z,100976.66
2023-03-21T20:13:57.352Z,100977.81
2023-03-21T20:16:25.497Z,100968.97
2023-03-21T20:18:53.467Z,100972.03
2023-03-21T20:21:25.409Z,100982.22
2023-03-21T20:23:52.462Z,100983.34
2023-03-21T20:26:19.117Z,100985.22
2023-03-21T20:28:56.686Z,100992.50
2023-03-21T20:31:34.163Z,100980.13
2023-03-21T20:34:01.026Z,100987.59
2023-03-21T20:36:43.893Z,100981.31
2023-03-21T20:39:10.598Z,100981.31
2023-03-21T20:41:38.177Z,100979.59
2023-03-21T20:46:53.465Z,100954.47
2023-03-21T20:49:20.620Z,100950.22
2023-03-21T20:52:49.751Z,100949.38
2023-03-21T20:54:34.143Z,100946.81
2023-03-21T20:57:00.805Z,100938.69
2023-03-21T20:59:28.302Z,100935.28
2023-03-21T21:01:57.848Z,100941.88
2023-03-21T21:04:42.829Z,100931.03
2023-03-21T21:07:12.535Z,100930.34
2023-03-21T21:09:39.152Z,100934.06
2023-03-21T21:12:07.895Z,100945.91
2023-03-21T21:14:35.612Z,100945.25
2023-03-21T21:17:20.842Z,100949.94
2023-03-21T21:19:51.007Z,100945.53
2023-03-21T21:22:17.718Z,100943.00
2023-03-21T21:24:44.662Z,100935.00
2023-03-21T21:27:11.314Z,100932.63
2023-03-21T21:29:38.656Z,100930.06
2023-03-21T21:32:06.583Z,100942.09
2023-03-21T21:34:33.186Z,100935.97
2023-03-21T21:36:59.784Z,100939.84
2023-03-21T21:39:26.438Z,100935.59
2023-03-21T21:41:53.850Z,100929.50
2023-03-21T21:44:20.504Z,100924.38
2023-03-21T21:46:47.233Z,100930.97
2023-03-21T21:49:15.295Z,100923.00
2023-03-21T21:51:42.043Z,100932.13
2023-03-21T21:54:08.769Z,100923.25
2023-03-21T21:56:37.823Z,100925.31
2023-03-21T21:59:04.639Z,100930.19
2023-03-21T22:01:32.376Z,100933.03
2023-03-21T22:03:59.189Z,100946.75
2023-03-21T22:06:27.178Z,100949.63
2023-03-21T22:08:53.807Z,100943.66
2023-03-21T22:11:20.548Z,100943.66
2023-03-21T22:13:47.646Z,100936.56
2023-03-21T22:16:14.344Z,100932.97
2023-03-21T22:18:41.001Z,100924.00
2023-03-21T22:21:08.167Z,100932.28
2023-03-21T22:23:36.240Z,100925.16
2023-03-21T22:26:02.837Z,100925.31
2023-03-21T22:28:30.526Z,100915.63
2023-03-21T22:30:57.171Z,100910.38
2023-03-21T22:33:23.840Z,100921.50
2023-03-21T22:35:52.630Z,100921.69
2023-03-21T22:38:19.605Z,100920.97
2023-03-21T22:40:53.418Z,100917.59
2023-03-21T22:43:20.071Z,100914.19
2023-03-21T22:45:46.738Z,100921.63
2023-03-21T22:48:13.447Z,100919.06
2023-03-21T22:50:41.439Z,100922.94
2023-03-21T22:53:08.977Z,100919.53
2023-03-21T22:55:35.604Z,100918.81
2023-03-21T22:58:03.644Z,100911.00
2023-03-21T23:00:30.342Z,100919.31
2023-03-21T23:02:57.038Z,100920.31
2023-03-21T23:05:23.687Z,100916.03
2023-03-21T23:07:50.322Z,100917.22
2023-03-21T23:10:17.854Z,100915.50
2023-03-21T23:12:44.681Z,100928.19
2023-03-21T23:15:12.852Z,100927.50
2023-03-21T23:17:39.621Z,100912.41
2023-03-21T23:20:07.331Z,100911.25
2023-03-21T23:22:35.020Z,100902.28
2023-03-21T23:25:01.978Z,100902.28
2023-03-21T23:27:28.955Z,100887.88
2023-03-21T23:29:55.555Z,100888.88
2023-03-21T23:32:23.906Z,100887.34
2023-03-21T23:34:50.563Z,100888.47
2023-03-21T23:37:17.186Z,100890.50
2023-03-21T23:39:43.732Z,100889.13
2023-03-21T23:42:10.662Z,100888.59
2023-03-21T23:44:37.376Z,100892.44
2023-03-21T23:47:04.050Z,100893.75
2023-03-21T23:49:32.082Z,100891.34
2023-03-21T23:51:58.734Z,100886.53
2023-03-21T23:54:25.480Z,100889.56
2023-03-21T23:56:52.095Z,100897.28
2023-03-21T23:59:18.677Z,100901.28
